Amber Waves — WDD3670 — position and weather

sailwx.info

Track history (hours):
 
Tides and Currents Weather Stations Pressure Air Temp Water Temp Dewpoint Dewpoint Depression Visibility Wind Speed Wind Dir Waves Ship Positions

Amber Waves

Owner: FISHY BUSINESS INC, BRICK, NJ. More information available from US FCC via Universal Licensing System and Coast Guard Vessel Documentation Center.

Last reported at 2017-Sep-13 07:49 UTC. Time now 2017-Sep-25 00:35 UTC.
Position N 40°06' W 074°02'.
Warning: this ship's position is 11 days out of date.

Length 24 m.

Type: Fishing. MMSI: 367134520.

Date/timePositionNaut miles runAvg speedWind from/ knotsBaromVisibWave heightAir tempDewpointWater temp
2017-Sep-13 07:49N 40°06' W 074°02'2 4.4
2017-Sep-13 07:28N 40°05' W 074°01'4 8.1
2017-Sep-13 07:00N 40°01' W 074°02'4 8.0
2017-Sep-13 06:29N 39°57' W 074°02'3 6.7
2017-Sep-13 05:59N 39°53' W 074°02'2 1.9
2017-Sep-13 05:10N 39°55' W 074°02'1 3.0
2017-Sep-13 04:56N 39°56' W 074°02'1 3.0
2017-Sep-13 04:31N 39°57' W 074°02'2 3.0
2017-Sep-13 03:57N 39°58' W 074°01'1 3.0
2017-Sep-13 03:29N 39°60' W 074°01'3 7.1
2017-Sep-13 03:00N 40°01' W 073°57'2 2.6
2017-Sep-13 02:13N 40°02' W 073°55'3 2.1
2017-Sep-13 00:53N 40°00' W 073°58'3 3.0
2017-Sep-12 23:59N 39°58' W 073°58'2 3.0
2017-Sep-12 23:25N 39°56' W 073°59'2 2.1
2017-Sep-12 22:31N 39°55' W 074°01'0 3.1
2017-Sep-12 22:27N 39°56' W 074°01'  
Track history (hours):
 
Tides and Currents Weather Stations Pressure Air Temp Water Temp Dewpoint Dewpoint Depression Visibility Wind Speed Wind Dir Waves Ship Positions

Amber Waves

Owner: FISHY BUSINESS INC, BRICK, NJ. More information available from US FCC via Universal Licensing System and Coast Guard Vessel Documentation Center.

Last reported at 2017-Sep-13 07:49 UTC. Time now 2017-Sep-25 00:35 UTC.
Position N 40°06' W 074°02'.
Warning: this ship's position is 11 days out of date.

Length 24 m.

Type: Fishing. MMSI: 367134520.

Date/timePositionNaut miles runAvg speedWind from/ knotsBaromVisibWave heightAir tempDewpointWater temp
2017-Sep-13 07:49N 40°06' W 074°02'2 4.4
2017-Sep-13 07:28N 40°05' W 074°01'4 8.1
2017-Sep-13 07:00N 40°01' W 074°02'4 8.0
2017-Sep-13 06:29N 39°57' W 074°02'3 6.7
2017-Sep-13 05:59N 39°53' W 074°02'2 1.9
2017-Sep-13 05:10N 39°55' W 074°02'1 3.0
2017-Sep-13 04:56N 39°56' W 074°02'1 3.0
2017-Sep-13 04:31N 39°57' W 074°02'2 3.0
2017-Sep-13 03:57N 39°58' W 074°01'1 3.0
2017-Sep-13 03:29N 39°60' W 074°01'3 7.1
2017-Sep-13 03:00N 40°01' W 073°57'2 2.6
2017-Sep-13 02:13N 40°02' W 073°55'3 2.1
2017-Sep-13 00:53N 40°00' W 073°58'3 3.0
2017-Sep-12 23:59N 39°58' W 073°58'2 3.0
2017-Sep-12 23:25N 39°56' W 073°59'2 2.1
2017-Sep-12 22:31N 39°55' W 074°01'0 3.1
2017-Sep-12 22:27N 39°56' W 074°01'  

Dump ship's entire track history